createdAt,value
2023-03-03T00:00:11.240Z,8.37
2023-03-03T00:02:41.403Z,7.95
2023-03-03T00:05:08.777Z,8.04
2023-03-03T00:07:35.603Z,8.04
2023-03-03T00:10:03.095Z,4.32
2023-03-03T00:12:31.243Z,7.16
2023-03-03T00:14:58.076Z,6.92
2023-03-03T00:17:27.763Z,6.73
2023-03-03T00:19:55.637Z,5.47
2023-03-03T00:22:40.513Z,6.71
2023-03-03T00:25:19.755Z,7.02
2023-03-03T00:27:47.101Z,8.65
2023-03-03T00:30:25.609Z,6.54
2023-03-03T00:32:56.802Z,7.69
2023-03-03T00:35:30.436Z,7.28
2023-03-03T00:38:00.167Z,4.80
2023-03-03T00:40:46.905Z,6.84
2023-03-03T00:43:21.593Z,6.33
2023-03-03T00:45:51.410Z,6.87
2023-03-03T00:48:31.600Z,6.73
2023-03-03T00:51:00.830Z,6.75
2023-03-03T00:53:30.186Z,7.70
2023-03-03T00:55:57.999Z,7.10
2023-03-03T00:58:26.058Z,8.39
2023-03-03T01:00:54.811Z,5.44
2023-03-03T01:03:27.374Z,6.57
2023-03-03T01:05:54.995Z,6.92
2023-03-03T01:08:22.678Z,7.68
2023-03-03T01:10:56.229Z,6.88
2023-03-03T01:13:28.398Z,6.62
2023-03-03T01:15:55.968Z,5.86
2023-03-03T01:18:22.893Z,7.23
2023-03-03T01:20:50.803Z,7.68
2023-03-03T01:23:18.420Z,7.80
2023-03-03T01:25:45.200Z,7.85
2023-03-03T01:28:12.400Z,7.72
2023-03-03T01:30:39.620Z,7.54
2023-03-03T01:33:06.406Z,7.77
2023-03-03T01:35:33.193Z,7.17
2023-03-03T01:37:59.894Z,7.15
2023-03-03T01:40:30.311Z,6.68
2023-03-03T01:42:59.817Z,4.87
2023-03-03T01:45:30.190Z,6.26
2023-03-03T01:48:01.777Z,5.65
2023-03-03T01:50:54.821Z,6.02
2023-03-03T01:53:59.587Z,5.98
2023-03-03T01:56:27.321Z,5.44
2023-03-03T01:59:26.349Z,6.77
2023-03-03T02:01:54.114Z,6.94
2023-03-03T02:04:22.081Z,7.57
2023-03-03T02:06:56.543Z,6.42
2023-03-03T02:09:38.622Z,7.31
2023-03-03T02:12:09.527Z,6.64
2023-03-03T02:14:36.922Z,5.83
2023-03-03T02:17:04.127Z,5.65
2023-03-03T02:19:32.181Z,6.11
2023-03-03T02:22:02.323Z,5.67
2023-03-03T02:24:37.819Z,5.96
2023-03-03T02:27:05.045Z,5.93
2023-03-03T02:29:31.989Z,5.85
2023-03-03T02:31:59.433Z,6.31
2023-03-03T02:34:26.689Z,7.27
2023-03-03T02:36:53.535Z,6.52
2023-03-03T02:39:23.772Z,7.35
2023-03-03T02:42:18.823Z,7.44
2023-03-03T02:44:50.726Z,7.76
2023-03-03T02:47:18.329Z,6.96
2023-03-03T02:49:45.284Z,6.78
2023-03-03T02:52:14.880Z,3.39
2023-03-03T02:54:45.076Z,6.64
2023-03-03T02:57:12.112Z,6.72
2023-03-03T02:59:38.799Z,7.14
2023-03-03T03:02:13.073Z,7.53
2023-03-03T03:04:40.426Z,6.46
2023-03-03T03:07:07.445Z,6.54
2023-03-03T03:09:36.851Z,6.09
2023-03-03T03:12:05.351Z,5.69
2023-03-03T03:14:34.381Z,6.74
2023-03-03T03:17:01.633Z,6.93
2023-03-03T03:19:29.245Z,5.36
2023-03-03T03:22:00.864Z,5.22
2023-03-03T03:24:28.655Z,6.12
2023-03-03T03:27:00.528Z,6.29
2023-03-03T03:29:28.466Z,5.84
2023-03-03T03:31:55.602Z,5.45
2023-03-03T03:34:22.533Z,6.57
2023-03-03T03:36:51.032Z,7.11
2023-03-03T03:39:19.060Z,7.13
2023-03-03T03:41:47.885Z,6.23
2023-03-03T03:44:15.088Z,6.86
2023-03-03T03:46:42.585Z,6.69
2023-03-03T03:49:10.493Z,5.87
2023-03-03T03:51:41.386Z,5.07
2023-03-03T03:54:11.050Z,4.82
2023-03-03T03:56:39.099Z,5.61
2023-03-03T03:59:07.706Z,5.62
2023-03-03T04:01:35.153Z,3.58
2023-03-03T04:04:03.093Z,6.76
2023-03-03T04:06:29.959Z,6.41
2023-03-03T04:08:57.717Z,6.95
2023-03-03T04:11:26.363Z,6.77
2023-03-03T04:13:53.409Z,6.98
2023-03-03T04:16:20.759Z,7.28
2023-03-03T04:18:47.550Z,7.76
2023-03-03T04:21:16.882Z,6.18
2023-03-03T04:23:45.493Z,7.27
2023-03-03T04:26:12.885Z,7.85
2023-03-03T04:28:40.827Z,8.01
2023-03-03T04:31:08.322Z,7.71
2023-03-03T04:33:35.187Z,7.41
2023-03-03T04:36:04.461Z,8.05
2023-03-03T04:38:31.413Z,8.45
2023-03-03T04:40:58.393Z,6.45
2023-03-03T04:43:28.206Z,8.45
2023-03-03T04:45:56.436Z,8.05
2023-03-03T04:48:23.556Z,8.55
2023-03-03T04:50:50.391Z,7.72
2023-03-03T04:53:17.237Z,7.72
2023-03-03T04:55:44.571Z,8.69
2023-03-03T04:58:11.686Z,8.50
2023-03-03T05:00:39.824Z,9.17
2023-03-03T05:03:10.881Z,6.74
2023-03-03T05:05:40.964Z,7.29
2023-03-03T05:08:08.272Z,7.16
2023-03-03T05:10:35.254Z,7.69
2023-03-03T05:13:02.075Z,7.48
2023-03-03T05:15:28.969Z,8.69
2023-03-03T05:17:56.639Z,9.14
2023-03-03T05:20:24.860Z,8.80
2023-03-03T05:22:52.459Z,8.74
2023-03-03T05:25:20.979Z,8.16
2023-03-03T05:27:47.730Z,8.56
2023-03-03T05:30:14.980Z,7.20
2023-03-03T05:32:41.762Z,8.25
2023-03-03T05:35:08.912Z,7.10
2023-03-03T05:37:35.671Z,8.10
2023-03-03T05:40:02.480Z,3.34
2023-03-03T05:42:29.586Z,4.05
2023-03-03T05:44:56.498Z,6.61
2023-03-03T05:47:23.701Z,6.77
2023-03-03T05:49:50.470Z,7.06
2023-03-03T05:52:17.166Z,6.33
2023-03-03T05:54:43.893Z,8.17
2023-03-03T05:57:10.660Z,7.59
2023-03-03T05:59:37.606Z,9.34
2023-03-03T06:02:04.578Z,9.27
2023-03-03T06:04:31.306Z,9.47
2023-03-03T06:06:58.764Z,8.53
2023-03-03T06:09:26.413Z,7.78
2023-03-03T06:11:53.656Z,8.70
2023-03-03T06:14:21.218Z,8.34
2023-03-03T06:16:48.710Z,7.76
2023-03-03T06:19:15.772Z,8.06
2023-03-03T06:21:43.179Z,8.02
2023-03-03T06:24:10.332Z,7.73
2023-03-03T06:26:37.089Z,9.67
2023-03-03T06:29:04.052Z,10.77
2023-03-03T06:31:30.828Z,10.46
2023-03-03T06:33:57.662Z,6.66
2023-03-03T06:36:25.610Z,8.51
2023-03-03T06:38:53.286Z,10.31
2023-03-03T06:41:20.036Z,7.50
2023-03-03T06:43:46.784Z,9.03
2023-03-03T06:46:14.414Z,10.10
2023-03-03T06:48:42.019Z,10.74
2023-03-03T06:51:33.623Z,10.34
2023-03-03T06:54:06.644Z,10.22
2023-03-03T06:56:37.255Z,9.43
2023-03-03T06:59:13.012Z,7.25
2023-03-03T07:01:39.889Z,9.71
2023-03-03T07:04:29.437Z,9.01
2023-03-03T07:06:59.793Z,9.64
2023-03-03T07:09:29.630Z,9.51
2023-03-03T07:12:16.522Z,8.75
2023-03-03T07:14:51.653Z,9.95
2023-03-03T07:17:20.841Z,10.97
2023-03-03T07:19:48.243Z,9.30
2023-03-03T07:22:16.748Z,10.13
2023-03-03T07:24:46.303Z,8.88
2023-03-03T07:27:23.162Z,8.12
2023-03-03T07:29:52.699Z,9.53
2023-03-03T07:32:31.281Z,8.31
2023-03-03T07:34:58.314Z,9.35
2023-03-03T07:37:41.276Z,9.76
2023-03-03T07:40:26.558Z,10.44
2023-03-03T07:42:53.367Z,5.72
2023-03-03T07:45:34.956Z,8.40
2023-03-03T07:48:15.985Z,10.29
2023-03-03T07:50:42.753Z,8.88
2023-03-03T07:53:21.917Z,9.49
2023-03-03T07:55:48.688Z,9.05
2023-03-03T07:58:22.367Z,9.95
2023-03-03T08:01:27.507Z,8.61
2023-03-03T08:03:55.973Z,10.40
2023-03-03T08:06:35.571Z,9.38
2023-03-03T08:09:26.631Z,10.17
2023-03-03T08:12:23.344Z,9.51
2023-03-03T08:14:52.569Z,8.78
2023-03-03T08:17:25.147Z,9.62
2023-03-03T08:19:54.120Z,8.89
2023-03-03T08:22:33.913Z,9.68
2023-03-03T08:25:00.624Z,9.12
2023-03-03T08:27:28.117Z,9.84
2023-03-03T08:29:55.520Z,9.87
2023-03-03T08:32:22.886Z,10.15
2023-03-03T08:34:49.712Z,10.80
2023-03-03T08:37:17.082Z,10.09
2023-03-03T08:39:44.274Z,8.58
2023-03-03T08:42:11.034Z,10.33
2023-03-03T08:44:37.844Z,9.88
2023-03-03T08:47:04.597Z,9.57
2023-03-03T08:49:31.860Z,10.30
2023-03-03T08:52:00.846Z,6.94
2023-03-03T08:54:27.890Z,11.33
2023-03-03T08:56:54.599Z,10.62
2023-03-03T08:59:22.316Z,11.69
2023-03-03T09:01:49.181Z,9.90
2023-03-03T09:04:16.005Z,11.28
2023-03-03T09:06:42.762Z,8.70
2023-03-03T09:09:09.660Z,9.98
2023-03-03T09:11:36.513Z,7.52
2023-03-03T09:14:15.232Z,10.43
2023-03-03T09:16:49.857Z,9.60
2023-03-03T09:19:25.717Z,9.26
2023-03-03T09:21:57.421Z,7.95
2023-03-03T09:24:35.893Z,10.51
2023-03-03T09:27:03.042Z,12.30
2023-03-03T09:29:37.336Z,9.95
2023-03-03T09:32:26.945Z,11.90
2023-03-03T09:34:54.138Z,11.57
2023-03-03T09:37:28.833Z,9.71
2023-03-03T09:39:58.082Z,10.41
2023-03-03T09:42:56.980Z,9.33
2023-03-03T09:45:42.144Z,10.67
2023-03-03T09:48:18.033Z,10.10
2023-03-03T09:51:25.057Z,8.90
2023-03-03T09:54:07.931Z,10.45
2023-03-03T09:56:44.794Z,9.06
2023-03-03T09:59:20.684Z,9.39
2023-03-03T10:01:56.649Z,11.01
2023-03-03T10:04:35.281Z,9.49
2023-03-03T10:07:38.927Z,10.85
2023-03-03T10:10:28.522Z,11.87
2023-03-03T10:13:07.189Z,9.37
2023-03-03T10:15:43.191Z,12.30
2023-03-03T10:18:19.877Z,11.29
2023-03-03T10:20:58.554Z,12.67
2023-03-03T10:23:34.490Z,10.92
2023-03-03T10:26:08.362Z,11.80
2023-03-03T10:28:38.519Z,9.58
2023-03-03T10:31:20.087Z,9.56
2023-03-03T10:33:54.945Z,11.33
2023-03-03T10:36:24.798Z,11.79
2023-03-03T10:39:05.967Z,10.33
2023-03-03T10:41:35.527Z,9.67
2023-03-03T10:44:16.889Z,10.47
2023-03-03T10:46:49.598Z,11.25
2023-03-03T10:49:33.969Z,9.24
2023-03-03T10:52:09.571Z,9.84
2023-03-03T10:54:45.519Z,10.76
2023-03-03T10:57:31.124Z,8.49
2023-03-03T11:00:23.787Z,10.88
2023-03-03T11:03:32.059Z,10.31
2023-03-03T11:06:02.609Z,11.92
2023-03-03T11:08:29.904Z,12.91
2023-03-03T11:11:22.066Z,10.41
2023-03-03T11:14:02.358Z,7.88
2023-03-03T11:16:54.370Z,8.94
2023-03-03T11:19:41.033Z,10.31
2023-03-03T11:22:29.926Z,9.73
2023-03-03T11:25:15.060Z,11.54
2023-03-03T11:27:54.590Z,9.61
2023-03-03T11:30:35.525Z,12.32
2023-03-03T11:33:17.718Z,10.74
2023-03-03T11:35:51.439Z,10.85
2023-03-03T11:38:28.866Z,13.25
2023-03-03T11:41:00.226Z,11.82
2023-03-03T11:43:37.888Z,10.33
2023-03-03T11:46:30.392Z,10.19
2023-03-03T11:49:06.774Z,10.65
2023-03-03T11:51:42.801Z,13.69
2023-03-03T11:54:29.168Z,11.56
2023-03-03T11:57:15.325Z,12.04
2023-03-03T11:59:51.710Z,11.92
2023-03-03T12:02:44.187Z,11.59
2023-03-03T12:05:40.084Z,10.84
2023-03-03T12:08:35.955Z,13.10
2023-03-03T12:11:12.022Z,12.41
2023-03-03T12:14:06.844Z,12.49
2023-03-03T12:16:56.619Z,11.56
2023-03-03T12:19:41.679Z,10.83
2023-03-03T12:22:26.772Z,9.93
2023-03-03T12:25:19.577Z,12.38
2023-03-03T12:28:19.497Z,11.89
2023-03-03T12:31:07.793Z,10.79
2023-03-03T12:33:57.123Z,12.78
2023-03-03T12:36:50.809Z,11.13
2023-03-03T12:39:35.470Z,11.03
2023-03-03T12:42:18.261Z,12.65
2023-03-03T12:44:55.980Z,12.99
2023-03-03T12:47:33.228Z,14.37
2023-03-03T12:50:19.621Z,13.94
2023-03-03T12:53:20.519Z,11.06
2023-03-03T12:56:13.276Z,13.01
2023-03-03T12:58:57.083Z,10.64
2023-03-03T13:01:43.559Z,11.20
2023-03-03T13:04:19.928Z,12.36
2023-03-03T13:07:04.930Z,13.70
2023-03-03T13:09:40.300Z,12.91
2023-03-03T13:12:34.586Z,14.72
2023-03-03T13:15:21.351Z,14.76
2023-03-03T13:18:15.750Z,12.56
2023-03-03T13:20:50.544Z,13.39
2023-03-03T13:23:42.658Z,13.22
2023-03-03T13:26:32.101Z,15.08
2023-03-03T13:29:37.212Z,15.46
2023-03-03T13:32:11.843Z,13.82
2023-03-03T13:34:55.880Z,11.75
2023-03-03T13:37:42.513Z,12.85
2023-03-03T13:40:43.661Z,13.91
2023-03-03T13:43:18.969Z,13.02
2023-03-03T13:46:17.216Z,14.35
2023-03-03T13:48:52.706Z,14.70
2023-03-03T13:51:42.426Z,11.79
2023-03-03T13:54:37.006Z,12.57
2023-03-03T13:57:06.581Z,13.40
2023-03-03T13:59:57.842Z,13.84
2023-03-03T14:03:09.220Z,12.79
2023-03-03T14:05:44.324Z,12.04
2023-03-03T14:08:13.875Z,13.71
2023-03-03T14:11:07.526Z,14.96
2023-03-03T14:14:04.110Z,13.05
2023-03-03T14:16:48.020Z,11.75
2023-03-03T14:19:20.375Z,13.80
2023-03-03T14:22:20.123Z,12.71
2023-03-03T14:25:08.562Z,13.33
2023-03-03T14:28:01.095Z,13.85
2023-03-03T14:30:29.434Z,11.21
2023-03-03T14:33:19.364Z,13.47
2023-03-03T14:36:04.505Z,11.03
2023-03-03T14:38:34.417Z,13.32
2023-03-03T14:41:14.398Z,12.73
2023-03-03T14:43:44.123Z,13.06
2023-03-03T14:46:30.487Z,11.93
2023-03-03T14:49:05.411Z,11.48
2023-03-03T14:51:48.136Z,13.48
2023-03-03T14:54:28.420Z,12.80
2023-03-03T14:57:15.290Z,11.85
2023-03-03T15:00:06.920Z,13.39
2023-03-03T15:02:52.092Z,12.61
2023-03-03T15:05:28.767Z,11.52
2023-03-03T15:07:58.964Z,15.09
2023-03-03T15:10:44.368Z,11.99
2023-03-03T15:13:19.905Z,12.26
2023-03-03T15:16:01.057Z,12.62
2023-03-03T15:18:32.525Z,12.41
2023-03-03T15:21:07.808Z,13.50
2023-03-03T15:23:43.690Z,11.87
2023-03-03T15:26:19.972Z,11.88
2023-03-03T15:28:59.703Z,9.89
2023-03-03T15:31:51.077Z,12.92
2023-03-03T15:34:29.998Z,13.14
2023-03-03T15:37:08.740Z,11.66
2023-03-03T15:39:50.011Z,11.20
2023-03-03T15:42:40.175Z,11.26
2023-03-03T15:45:31.973Z,11.00
2023-03-03T15:48:10.953Z,11.67
2023-03-03T15:50:57.022Z,10.12
2023-03-03T15:53:32.949Z,12.62
2023-03-03T15:56:06.466Z,11.99
2023-03-03T15:58:36.548Z,9.97
2023-03-03T16:01:31.822Z,11.33
2023-03-03T16:04:10.461Z,11.04
2023-03-03T16:06:38.272Z,9.98
2023-03-03T16:09:17.039Z,10.11
2023-03-03T16:11:58.074Z,10.89
2023-03-03T16:14:52.750Z,10.44
2023-03-03T16:17:25.946Z,9.03
2023-03-03T16:20:15.913Z,8.91
2023-03-03T16:23:14.342Z,10.63
2023-03-03T16:25:43.675Z,10.58
2023-03-03T16:28:14.446Z,10.38
2023-03-03T16:30:53.984Z,10.16
2023-03-03T16:33:44.991Z,9.10
2023-03-03T16:36:17.525Z,9.36
2023-03-03T16:38:57.321Z,10.25
2023-03-03T16:41:47.334Z,10.23
2023-03-03T16:44:35.789Z,10.02
2023-03-03T16:47:40.462Z,10.25
2023-03-03T16:50:26.404Z,10.59
2023-03-03T16:53:19.293Z,9.10
2023-03-03T16:56:02.137Z,9.66
2023-03-03T16:58:37.874Z,9.36
2023-03-03T17:01:04.671Z,9.61
2023-03-03T17:03:40.258Z,9.75
2023-03-03T17:06:21.097Z,9.97
2023-03-03T17:09:05.994Z,8.34
2023-03-03T17:12:00.822Z,10.10
2023-03-03T17:14:49.750Z,9.66
2023-03-03T17:17:51.120Z,10.36
2023-03-03T17:20:26.990Z,10.89
2023-03-03T17:23:21.163Z,8.81
2023-03-03T17:26:10.252Z,8.04
2023-03-03T17:28:55.905Z,9.60
2023-03-03T17:31:38.059Z,9.39
2023-03-03T17:34:08.894Z,8.51
2023-03-03T17:36:50.170Z,8.43
2023-03-03T17:39:28.912Z,8.98
2023-03-03T17:42:06.484Z,8.79
2023-03-03T17:44:48.381Z,9.76
2023-03-03T17:47:47.335Z,9.54
2023-03-03T17:50:29.045Z,7.28
2023-03-03T17:53:07.789Z,8.13
2023-03-03T17:55:53.499Z,7.75
2023-03-03T17:58:42.760Z,8.04
2023-03-03T18:01:53.740Z,7.65
2023-03-03T18:05:01.672Z,8.70
2023-03-03T18:07:47.434Z,9.31
2023-03-03T18:10:26.413Z,7.70
2023-03-03T18:13:24.602Z,8.44
2023-03-03T18:16:11.499Z,10.02
2023-03-03T18:19:07.018Z,10.90
2023-03-03T18:21:51.907Z,10.14
2023-03-03T18:24:36.926Z,10.26
2023-03-03T18:27:40.401Z,7.63
2023-03-03T18:30:24.991Z,7.41
2023-03-03T18:32:57.818Z,8.61
2023-03-03T18:35:34.896Z,8.30
2023-03-03T18:38:23.509Z,9.29
2023-03-03T18:41:00.949Z,8.47
2023-03-03T18:43:40.272Z,9.95
2023-03-03T18:46:25.309Z,9.00
2023-03-03T18:49:03.620Z,8.78
2023-03-03T18:51:39.648Z,8.80
2023-03-03T18:54:12.445Z,6.94
2023-03-03T18:56:46.314Z,9.00
2023-03-03T18:59:31.265Z,8.65
2023-03-03T19:02:29.701Z,8.38
2023-03-03T19:05:08.934Z,8.83
2023-03-03T19:08:01.060Z,8.86
2023-03-03T19:10:39.764Z,8.55
2023-03-03T19:13:47.037Z,8.78
2023-03-03T19:16:25.769Z,8.39
2023-03-03T19:18:52.630Z,8.26
2023-03-03T19:21:28.405Z,7.28
2023-03-03T19:24:06.219Z,8.36
2023-03-03T19:26:55.771Z,7.55
2023-03-03T19:29:25.557Z,8.21
2023-03-03T19:32:13.886Z,8.37
2023-03-03T19:34:46.817Z,8.21
2023-03-03T19:37:23.089Z,7.66
2023-03-03T19:40:03.067Z,7.68
2023-03-03T19:42:58.726Z,7.54
2023-03-03T19:45:37.891Z,7.39
2023-03-03T19:48:16.210Z,6.40
2023-03-03T19:50:50.710Z,7.23
2023-03-03T19:53:39.624Z,6.68
2023-03-03T19:56:15.104Z,7.09
2023-03-03T19:59:13.729Z,8.35
2023-03-03T20:01:50.874Z,7.09
2023-03-03T20:04:44.464Z,8.30
2023-03-03T20:07:15.879Z,6.41
2023-03-03T20:09:55.700Z,7.56
2023-03-03T20:13:07.034Z,7.05
2023-03-03T20:15:54.826Z,4.26
2023-03-03T20:18:58.918Z,6.11
2023-03-03T20:21:33.500Z,7.04
2023-03-03T20:24:18.708Z,6.79
2023-03-03T20:26:58.379Z,7.02
2023-03-03T20:29:45.065Z,4.00
2023-03-03T20:32:55.134Z,5.42
2023-03-03T20:35:47.572Z,5.72
2023-03-03T20:38:14.230Z,6.25
2023-03-03T20:41:08.668Z,8.11
2023-03-03T20:43:58.631Z,8.50
2023-03-03T20:46:38.615Z,6.22
2023-03-03T20:49:45.157Z,4.97
2023-03-03T20:52:31.113Z,7.06
2023-03-03T20:55:13.548Z,7.38
2023-03-03T20:58:00.846Z,7.22
2023-03-03T21:00:51.474Z,6.97
2023-03-03T21:03:34.979Z,8.13
2023-03-03T21:06:09.856Z,7.63
2023-03-03T21:08:42.774Z,7.28
2023-03-03T21:11:10.538Z,8.22
2023-03-03T21:13:44.062Z,6.28
2023-03-03T21:16:25.813Z,6.22
2023-03-03T21:19:01.544Z,5.94
2023-03-03T21:21:30.444Z,7.75
2023-03-03T21:23:59.098Z,8.90
2023-03-03T21:26:46.909Z,9.21
2023-03-03T21:29:28.873Z,7.52
2023-03-03T21:32:04.559Z,8.12
2023-03-03T21:34:33.933Z,6.57
2023-03-03T21:37:17.201Z,3.83
2023-03-03T21:39:44.605Z,4.31
2023-03-03T21:42:14.515Z,5.24
2023-03-03T21:44:46.726Z,6.49
2023-03-03T21:47:15.627Z,6.10
2023-03-03T21:49:43.647Z,5.71
2023-03-03T21:52:12.590Z,7.75
2023-03-03T21:54:40.530Z,6.13
2023-03-03T21:57:07.988Z,7.76
2023-03-03T21:59:34.694Z,8.36
2023-03-03T22:02:01.478Z,8.69
2023-03-03T22:04:28.260Z,8.07
2023-03-03T22:06:55.853Z,8.44
2023-03-03T22:09:23.101Z,8.27
2023-03-03T22:11:49.835Z,3.80
2023-03-03T22:14:16.642Z,5.90
2023-03-03T22:16:43.804Z,5.93
2023-03-03T22:19:11.127Z,4.18
2023-03-03T22:21:39.680Z,7.64
2023-03-03T22:24:08.186Z,7.16
2023-03-03T22:26:35.437Z,8.09
2023-03-03T22:29:02.482Z,8.21
2023-03-03T22:31:29.335Z,7.13
2023-03-03T22:33:56.207Z,7.14
2023-03-03T22:36:23.576Z,8.11
2023-03-03T22:38:50.465Z,7.14
2023-03-03T22:41:17.679Z,6.78
2023-03-03T22:43:44.563Z,6.78
2023-03-03T22:46:11.835Z,6.66
2023-03-03T22:48:39.166Z,6.98
2023-03-03T22:51:06.798Z,7.87
2023-03-03T22:53:33.825Z,6.88
2023-03-03T22:56:00.636Z,7.23
2023-03-03T22:58:27.512Z,8.76
2023-03-03T23:00:54.951Z,8.75
2023-03-03T23:03:21.914Z,8.68
2023-03-03T23:05:51.477Z,7.23
2023-03-03T23:08:20.324Z,4.68
2023-03-03T23:10:47.595Z,4.81
2023-03-03T23:13:14.478Z,5.50
2023-03-03T23:15:41.349Z,6.68
2023-03-03T23:18:08.805Z,8.62
2023-03-03T23:20:35.719Z,9.28
2023-03-03T23:23:03.039Z,9.04
2023-03-03T23:25:30.306Z,7.73
2023-03-03T23:27:57.610Z,7.84
2023-03-03T23:30:25.255Z,7.93
2023-03-03T23:32:52.393Z,6.07
2023-03-03T23:35:19.636Z,6.06
2023-03-03T23:37:46.524Z,5.51
2023-03-03T23:40:15.802Z,6.86
2023-03-03T23:42:43.591Z,7.97
2023-03-03T23:45:11.621Z,8.73
2023-03-03T23:47:38.642Z,9.05
2023-03-03T23:50:06.229Z,8.91
2023-03-03T23:52:33.056Z,6.62
2023-03-03T23:54:59.921Z,5.81
2023-03-03T23:57:26.830Z,5.58
2023-03-03T23:59:53.604Z,7.55
